sensor_id;sensor_type;location;lat;lon;timestamp;pressure;altitude;pressure_sealevel;temperature;humidity
47366;BME280;33105;47.964;7.982;2023-09-12T00:02:57;96357.41;;;20.31;61.83
47366;BME280;33105;47.964;7.982;2023-09-12T00:06:00;96361.91;;;20.15;62.07
47366;BME280;33105;47.964;7.982;2023-09-12T00:09:01;96344.25;;;20.20;61.78
47366;BME280;33105;47.964;7.982;2023-09-12T00:12:06;96349.22;;;20.35;61.39
47366;BME280;33105;47.964;7.982;2023-09-12T00:15:07;96344.19;;;20.37;61.08
47366;BME280;33105;47.964;7.982;2023-09-12T00:18:09;96342.38;;;20.41;60.94
47366;BME280;33105;47.964;7.982;2023-09-12T00:21:10;96344.09;;;20.25;61.91
47366;BME280;33105;47.964;7.982;2023-09-12T00:24:11;96341.16;;;20.21;62.02
47366;BME280;33105;47.964;7.982;2023-09-12T00:27:13;96342.59;;;20.27;62.06
47366;BME280;33105;47.964;7.982;2023-09-12T00:30:14;96347.00;;;20.28;61.31
47366;BME280;33105;47.964;7.982;2023-09-12T00:33:16;96344.69;;;20.39;61.26
47366;BME280;33105;47.964;7.982;2023-09-12T00:36:17;96338.19;;;20.26;61.93
47366;BME280;33105;47.964;7.982;2023-09-12T00:39:18;96335.75;;;20.25;61.96
47366;BME280;33105;47.964;7.982;2023-09-12T00:42:25;96331.72;;;20.14;62.64
47366;BME280;33105;47.964;7.982;2023-09-12T00:45:27;96333.97;;;20.20;62.57
47366;BME280;33105;47.964;7.982;2023-09-12T00:48:29;96337.28;;;20.14;62.69
47366;BME280;33105;47.964;7.982;2023-09-12T00:51:31;96344.28;;;20.11;62.76
47366;BME280;33105;47.964;7.982;2023-09-12T00:54:33;96337.78;;;20.07;63.14
47366;BME280;33105;47.964;7.982;2023-09-12T00:57:35;96336.09;;;20.23;61.70
47366;BME280;33105;47.964;7.982;2023-09-12T01:00:37;96339.69;;;20.24;61.61
47366;BME280;33105;47.964;7.982;2023-09-12T01:03:38;96335.00;;;20.07;62.77
47366;BME280;33105;47.964;7.982;2023-09-12T01:06:39;96332.13;;;19.95;63.09
47366;BME280;33105;47.964;7.982;2023-09-12T01:09:41;96335.06;;;19.98;63.15
47366;BME280;33105;47.964;7.982;2023-09-12T01:12:42;96343.63;;;20.14;62.50
47366;BME280;33105;47.964;7.982;2023-09-12T01:15:44;96332.22;;;20.16;62.34
47366;BME280;33105;47.964;7.982;2023-09-12T01:18:45;96338.16;;;19.97;63.04
47366;BME280;33105;47.964;7.982;2023-09-12T01:21:57;96334.13;;;19.86;63.39
47366;BME280;33105;47.964;7.982;2023-09-12T01:28:29;96331.16;;;19.91;63.18
47366;BME280;33105;47.964;7.982;2023-09-12T01:31:32;96336.13;;;20.15;62.26
47366;BME280;33105;47.964;7.982;2023-09-12T01:34:34;96345.25;;;20.15;62.08
47366;BME280;33105;47.964;7.982;2023-09-12T01:37:36;96349.81;;;20.20;62.29
47366;BME280;33105;47.964;7.982;2023-09-12T01:40:44;96338.09;;;20.14;61.94
47366;BME280;33105;47.964;7.982;2023-09-12T01:43:47;96340.72;;;20.11;61.69
47366;BME280;33105;47.964;7.982;2023-09-12T01:46:51;96342.63;;;20.19;62.18
47366;BME280;33105;47.964;7.982;2023-09-12T01:49:56;96331.63;;;20.40;61.37
47366;BME280;33105;47.964;7.982;2023-09-12T01:52:58;96336.03;;;20.32;61.76
47366;BME280;33105;47.964;7.982;2023-09-12T01:56:00;96334.28;;;20.27;62.13
47366;BME280;33105;47.964;7.982;2023-09-12T01:59:02;96327.28;;;20.21;62.30
47366;BME280;33105;47.964;7.982;2023-09-12T02:02:04;96333.16;;;20.20;63.01
47366;BME280;33105;47.964;7.982;2023-09-12T02:05:15;96332.66;;;20.26;62.12
47366;BME280;33105;47.964;7.982;2023-09-12T02:08:19;96328.84;;;20.31;61.94
47366;BME280;33105;47.964;7.982;2023-09-12T02:11:22;96339.34;;;20.25;62.18
47366;BME280;33105;47.964;7.982;2023-09-12T02:14:23;96329.91;;;20.18;62.20
47366;BME280;33105;47.964;7.982;2023-09-12T02:17:25;96324.66;;;20.25;61.79
47366;BME280;33105;47.964;7.982;2023-09-12T02:20:27;96333.97;;;20.20;62.39
47366;BME280;33105;47.964;7.982;2023-09-12T02:23:28;96332.84;;;20.21;61.86
47366;BME280;33105;47.964;7.982;2023-09-12T02:26:32;96336.31;;;20.10;62.71
47366;BME280;33105;47.964;7.982;2023-09-12T02:29:39;96333.88;;;20.08;62.69
47366;BME280;33105;47.964;7.982;2023-09-12T02:32:42;96330.25;;;20.16;62.66
47366;BME280;33105;47.964;7.982;2023-09-12T02:35:43;96335.91;;;20.28;61.54
47366;BME280;33105;47.964;7.982;2023-09-12T02:38:45;96328.38;;;20.37;60.99
47366;BME280;33105;47.964;7.982;2023-09-12T02:41:47;96331.03;;;20.25;61.92
47366;BME280;33105;47.964;7.982;2023-09-12T02:44:48;96329.53;;;20.28;61.97
47366;BME280;33105;47.964;7.982;2023-09-12T02:47:50;96327.00;;;20.14;62.25
47366;BME280;33105;47.964;7.982;2023-09-12T02:50:51;96324.19;;;20.23;61.46
47366;BME280;33105;47.964;7.982;2023-09-12T02:53:53;96326.81;;;20.19;62.82
47366;BME280;33105;47.964;7.982;2023-09-12T02:56:55;96327.47;;;20.16;62.93
47366;BME280;33105;47.964;7.982;2023-09-12T02:59:56;96324.72;;;20.08;63.58
47366;BME280;33105;47.964;7.982;2023-09-12T03:02:58;96316.97;;;19.92;63.87
47366;BME280;33105;47.964;7.982;2023-09-12T03:06:00;96324.19;;;19.85;64.37
47366;BME280;33105;47.964;7.982;2023-09-12T03:09:02;96322.06;;;19.82;63.99
47366;BME280;33105;47.964;7.982;2023-09-12T03:12:05;96316.75;;;19.68;64.29
47366;BME280;33105;47.964;7.982;2023-09-12T03:15:07;96316.09;;;19.71;64.27
47366;BME280;33105;47.964;7.982;2023-09-12T03:18:09;96311.19;;;19.68;64.52
47366;BME280;33105;47.964;7.982;2023-09-12T03:21:11;96308.09;;;19.69;64.51
47366;BME280;33105;47.964;7.982;2023-09-12T03:24:14;96314.47;;;19.61;65.33
47366;BME280;33105;47.964;7.982;2023-09-12T03:27:15;96308.28;;;19.56;65.46
47366;BME280;33105;47.964;7.982;2023-09-12T03:30:16;96308.16;;;19.52;65.58
47366;BME280;33105;47.964;7.982;2023-09-12T03:33:18;96300.97;;;19.43;65.66
47366;BME280;33105;47.964;7.982;2023-09-12T03:36:19;96297.88;;;19.35;65.98
47366;BME280;33105;47.964;7.982;2023-09-12T03:39:21;96301.81;;;19.34;65.86
47366;BME280;33105;47.964;7.982;2023-09-12T03:42:22;96297.06;;;19.35;65.83
47366;BME280;33105;47.964;7.982;2023-09-12T03:45:24;96304.13;;;19.24;66.14
47366;BME280;33105;47.964;7.982;2023-09-12T03:48:26;96308.84;;;19.23;66.35
47366;BME280;33105;47.964;7.982;2023-09-12T03:51:27;96305.91;;;19.20;66.39
47366;BME280;33105;47.964;7.982;2023-09-12T03:54:29;96296.78;;;19.28;66.20
47366;BME280;33105;47.964;7.982;2023-09-12T03:57:30;96298.25;;;19.17;66.57
47366;BME280;33105;47.964;7.982;2023-09-12T04:00:32;96300.22;;;19.16;67.05
47366;BME280;33105;47.964;7.982;2023-09-12T04:03:34;96295.97;;;19.19;67.11
47366;BME280;33105;47.964;7.982;2023-09-12T04:06:35;96306.88;;;19.24;66.45
47366;BME280;33105;47.964;7.982;2023-09-12T04:09:36;96303.97;;;19.20;66.52
47366;BME280;33105;47.964;7.982;2023-09-12T04:12:37;96293.84;;;19.16;66.24
47366;BME280;33105;47.964;7.982;2023-09-12T04:15:39;96297.94;;;19.18;66.60
47366;BME280;33105;47.964;7.982;2023-09-12T04:18:40;96297.94;;;19.10;66.85
47366;BME280;33105;47.964;7.982;2023-09-12T04:21:41;96294.66;;;19.16;66.40
47366;BME280;33105;47.964;7.982;2023-09-12T04:24:42;96301.84;;;19.17;67.05
47366;BME280;33105;47.964;7.982;2023-09-12T04:27:44;96305.59;;;19.13;67.10
47366;BME280;33105;47.964;7.982;2023-09-12T04:30:46;96303.97;;;19.12;66.80
47366;BME280;33105;47.964;7.982;2023-09-12T04:33:47;96296.50;;;19.03;67.29
47366;BME280;33105;47.964;7.982;2023-09-12T04:36:48;96300.22;;;19.08;67.07
47366;BME280;33105;47.964;7.982;2023-09-12T04:39:49;96300.53;;;19.15;66.78
47366;BME280;33105;47.964;7.982;2023-09-12T04:42:51;96302.66;;;19.18;66.61
47366;BME280;33105;47.964;7.982;2023-09-12T04:45:52;96305.75;;;19.16;66.74
47366;BME280;33105;47.964;7.982;2023-09-12T04:48:53;96300.06;;;19.13;67.43
47366;BME280;33105;47.964;7.982;2023-09-12T04:51:55;96303.47;;;19.10;66.96
47366;BME280;33105;47.964;7.982;2023-09-12T04:54:56;96307.56;;;19.03;67.76
47366;BME280;33105;47.964;7.982;2023-09-12T04:57:57;96304.16;;;18.98;67.88
47366;BME280;33105;47.964;7.982;2023-09-12T05:00:58;96313.59;;;18.97;67.57
47366;BME280;33105;47.964;7.982;2023-09-12T05:04:00;96325.31;;;19.02;67.55
47366;BME280;33105;47.964;7.982;2023-09-12T05:07:01;96322.88;;;19.01;68.33
47366;BME280;33105;47.964;7.982;2023-09-12T05:10:04;96328.09;;;19.02;68.11
47366;BME280;33105;47.964;7.982;2023-09-12T05:13:05;96324.84;;;19.00;68.03
47366;BME280;33105;47.964;7.982;2023-09-12T05:16:07;96336.22;;;18.99;68.83
47366;BME280;33105;47.964;7.982;2023-09-12T05:19:08;96324.50;;;18.93;69.22
47366;BME280;33105;47.964;7.982;2023-09-12T05:22:09;96323.19;;;18.91;69.02
47366;BME280;33105;47.964;7.982;2023-09-12T05:25:11;96327.44;;;18.80;69.96
47366;BME280;33105;47.964;7.982;2023-09-12T05:28:12;96331.03;;;18.80;69.86
47366;BME280;33105;47.964;7.982;2023-09-12T05:31:17;96332.63;;;18.81;70.17
47366;BME280;33105;47.964;7.982;2023-09-12T05:34:18;96337.34;;;18.81;70.40
47366;BME280;33105;47.964;7.982;2023-09-12T05:37:19;96333.44;;;18.82;70.47
47366;BME280;33105;47.964;7.982;2023-09-12T05:40:22;96346.31;;;18.86;71.22
47366;BME280;33105;47.964;7.982;2023-09-12T05:43:23;96350.06;;;18.90;71.03
47366;BME280;33105;47.964;7.982;2023-09-12T05:46:25;96351.53;;;18.79;71.18
47366;BME280;33105;47.964;7.982;2023-09-12T05:49:26;96359.34;;;18.77;71.19
47366;BME280;33105;47.964;7.982;2023-09-12T05:52:27;96368.28;;;18.83;71.88
47366;BME280;33105;47.964;7.982;2023-09-12T05:55:28;96365.03;;;18.89;72.77
47366;BME280;33105;47.964;7.982;2023-09-12T05:58:30;96362.59;;;18.96;71.93
47366;BME280;33105;47.964;7.982;2023-09-12T06:01:31;96356.91;;;19.10;70.75
47366;BME280;33105;47.964;7.982;2023-09-12T06:04:32;96346.78;;;19.06;71.76
47366;BME280;33105;47.964;7.982;2023-09-12T06:07:34;96351.69;;;19.09;70.83
47366;BME280;33105;47.964;7.982;2023-09-12T06:10:35;96346.81;;;19.23;70.28
47366;BME280;33105;47.964;7.982;2023-09-12T06:13:36;96357.88;;;19.14;71.17
47366;BME280;33105;47.964;7.982;2023-09-12T06:16:38;96348.28;;;19.03;71.39
47366;BME280;33105;47.964;7.982;2023-09-12T06:19:39;96348.41;;;19.07;72.75
47366;BME280;33105;47.964;7.982;2023-09-12T06:22:40;96345.66;;;19.15;72.35
47366;BME280;33105;47.964;7.982;2023-09-12T06:25:42;96341.59;;;19.21;71.77
47366;BME280;33105;47.964;7.982;2023-09-12T06:28:43;96352.66;;;19.21;73.00
47366;BME280;33105;47.964;7.982;2023-09-12T06:31:44;96352.50;;;19.26;73.80
47366;BME280;33105;47.964;7.982;2023-09-12T06:34:46;96358.00;;;19.35;73.94
47366;BME280;33105;47.964;7.982;2023-09-12T06:37:48;96363.72;;;19.47;73.68
47366;BME280;33105;47.964;7.982;2023-09-12T06:40:49;96353.59;;;19.60;74.01
47366;BME280;33105;47.964;7.982;2023-09-12T06:43:50;96353.41;;;19.74;72.80
47366;BME280;33105;47.964;7.982;2023-09-12T06:46:52;96362.81;;;19.81;74.51
47366;BME280;33105;47.964;7.982;2023-09-12T06:49:53;96357.28;;;19.90;76.11
47366;BME280;33105;47.964;7.982;2023-09-12T06:52:54;96368.41;;;20.19;73.85
47366;BME280;33105;47.964;7.982;2023-09-12T06:55:55;96369.88;;;20.25;74.23
47366;BME280;33105;47.964;7.982;2023-09-12T06:58:58;96365.53;;;20.36;72.02
47366;BME280;33105;47.964;7.982;2023-09-12T07:02:00;96370.00;;;20.29;72.10
47366;BME280;33105;47.964;7.982;2023-09-12T07:05:01;96372.16;;;20.23;71.42
47366;BME280;33105;47.964;7.982;2023-09-12T07:08:04;96363.22;;;20.09;70.76
47366;BME280;33105;47.964;7.982;2023-09-12T07:11:06;96369.06;;;20.25;70.94
47366;BME280;33105;47.964;7.982;2023-09-12T07:14:11;96370.03;;;20.58;71.87
47366;BME280;33105;47.964;7.982;2023-09-12T07:17:12;96368.72;;;20.56;71.45
47366;BME280;33105;47.964;7.982;2023-09-12T07:20:13;96363.94;;;20.65;71.00
47366;BME280;33105;47.964;7.982;2023-09-12T07:23:16;96363.63;;;20.87;69.25
47366;BME280;33105;47.964;7.982;2023-09-12T07:26:17;96367.66;;;20.98;70.80
47366;BME280;33105;47.964;7.982;2023-09-12T07:29:18;96364.13;;;21.31;71.18
47366;BME280;33105;47.964;7.982;2023-09-12T07:32:20;96366.19;;;21.55;70.21
47366;BME280;33105;47.964;7.982;2023-09-12T07:35:22;96369.78;;;21.55;70.31
47366;BME280;33105;47.964;7.982;2023-09-12T07:38:25;96363.34;;;21.63;68.85
47366;BME280;33105;47.964;7.982;2023-09-12T07:41:26;96363.84;;;21.78;72.18
47366;BME280;33105;47.964;7.982;2023-09-12T07:44:28;96357.16;;;21.91;71.20
47366;BME280;33105;47.964;7.982;2023-09-12T07:47:30;96352.34;;;22.12;70.50
47366;BME280;33105;47.964;7.982;2023-09-12T07:50:32;96360.72;;;22.24;67.90
47366;BME280;33105;47.964;7.982;2023-09-12T07:53:33;96369.63;;;22.18;70.46
47366;BME280;33105;47.964;7.982;2023-09-12T07:56:34;96368.69;;;22.14;69.16
47366;BME280;33105;47.964;7.982;2023-09-12T07:59:36;96373.66;;;22.08;70.48
47366;BME280;33105;47.964;7.982;2023-09-12T08:02:37;96369.22;;;21.95;71.19
47366;BME280;33105;47.964;7.982;2023-09-12T08:05:38;96371.78;;;22.00;70.96
47366;BME280;33105;47.964;7.982;2023-09-12T08:08:39;96373.53;;;22.04;71.60
47366;BME280;33105;47.964;7.982;2023-09-12T08:11:41;96374.34;;;22.05;72.85
47366;BME280;33105;47.964;7.982;2023-09-12T08:14:42;96379.47;;;22.15;71.72
47366;BME280;33105;47.964;7.982;2023-09-12T08:17:43;96374.72;;;22.16;75.37
47366;BME280;33105;47.964;7.982;2023-09-12T08:20:44;96378.44;;;22.20;71.46
47366;BME280;33105;47.964;7.982;2023-09-12T08:23:46;96390.59;;;22.27;71.06
47366;BME280;33105;47.964;7.982;2023-09-12T08:26:47;96384.94;;;22.36;71.98
47366;BME280;33105;47.964;7.982;2023-09-12T08:29:48;96378.47;;;22.44;71.11
47366;BME280;33105;47.964;7.982;2023-09-12T08:32:49;96376.94;;;22.59;71.27
47366;BME280;33105;47.964;7.982;2023-09-12T08:35:50;96367.19;;;22.65;71.54
47366;BME280;33105;47.964;7.982;2023-09-12T08:38:52;96373.59;;;22.78;72.76
47366;BME280;33105;47.964;7.982;2023-09-12T08:41:53;96374.88;;;22.92;71.27
47366;BME280;33105;47.964;7.982;2023-09-12T08:44:55;96374.34;;;23.02;69.67
47366;BME280;33105;47.964;7.982;2023-09-12T08:47:59;96375.41;;;23.10;69.00
47366;BME280;33105;47.964;7.982;2023-09-12T08:51:04;96371.38;;;23.35;69.76
47366;BME280;33105;47.964;7.982;2023-09-12T08:54:08;96376.84;;;23.32;68.79
47366;BME280;33105;47.964;7.982;2023-09-12T08:57:10;96375.84;;;23.24;68.22
47366;BME280;33105;47.964;7.982;2023-09-12T09:00:13;96375.91;;;23.28;68.28
47366;BME280;33105;47.964;7.982;2023-09-12T09:03:15;96374.97;;;23.36;68.19
47366;BME280;33105;47.964;7.982;2023-09-12T09:06:17;96371.25;;;23.44;67.79
47366;BME280;33105;47.964;7.982;2023-09-12T09:09:21;96381.91;;;23.54;66.01
47366;BME280;33105;47.964;7.982;2023-09-12T09:12:22;96380.94;;;23.62;65.16
47366;BME280;33105;47.964;7.982;2023-09-12T09:18:26;96387.56;;;23.86;66.17
47366;BME280;33105;47.964;7.982;2023-09-12T09:21:30;96390.78;;;24.00;64.34
47366;BME280;33105;47.964;7.982;2023-09-12T09:24:32;96385.09;;;24.12;61.74
47366;BME280;33105;47.964;7.982;2023-09-12T09:27:33;96381.97;;;24.29;55.79
47366;BME280;33105;47.964;7.982;2023-09-12T09:30:43;96378.66;;;24.55;49.31
47366;BME280;33105;47.964;7.982;2023-09-12T09:33:44;96382.06;;;24.64;52.56
47366;BME280;33105;47.964;7.982;2023-09-12T09:36:54;96386.81;;;24.80;52.15
47366;BME280;33105;47.964;7.982;2023-09-12T09:39:56;96371.31;;;24.82;54.02
47366;BME280;33105;47.964;7.982;2023-09-12T09:43:01;96379.88;;;24.89;54.33
47366;BME280;33105;47.964;7.982;2023-09-12T09:46:02;96383.69;;;24.97;52.56
47366;BME280;33105;47.964;7.982;2023-09-12T09:49:04;96385.09;;;24.91;52.23
47366;BME280;33105;47.964;7.982;2023-09-12T09:52:07;96388.47;;;24.96;54.90
47366;BME280;33105;47.964;7.982;2023-09-12T09:55:13;96384.75;;;24.76;53.40
47366;BME280;33105;47.964;7.982;2023-09-12T09:58:15;96377.19;;;24.77;51.90
47366;BME280;33105;47.964;7.982;2023-09-12T10:01:22;96379.59;;;24.79;50.03
47366;BME280;33105;47.964;7.982;2023-09-12T10:04:27;96386.91;;;24.83;48.86
47366;BME280;33105;47.964;7.982;2023-09-12T10:07:33;96380.59;;;25.02;48.37
47366;BME280;33105;47.964;7.982;2023-09-12T10:10:34;96379.47;;;25.22;45.02
47366;BME280;33105;47.964;7.982;2023-09-12T10:13:38;96378.50;;;25.34;46.25
47366;BME280;33105;47.964;7.982;2023-09-12T10:16:49;96369.69;;;25.51;43.49
47366;BME280;33105;47.964;7.982;2023-09-12T10:19:55;96366.59;;;25.56;45.63
47366;BME280;33105;47.964;7.982;2023-09-12T10:23:06;96359.25;;;25.67;44.16
47366;BME280;33105;47.964;7.982;2023-09-12T10:26:13;96360.19;;;25.75;42.74
47366;BME280;33105;47.964;7.982;2023-09-12T10:29:15;96360.44;;;25.66;41.70
47366;BME280;33105;47.964;7.982;2023-09-12T10:32:17;96356.28;;;25.60;41.63
47366;BME280;33105;47.964;7.982;2023-09-12T10:35:19;96341.75;;;25.70;43.02
47366;BME280;33105;47.964;7.982;2023-09-12T10:38:23;96344.50;;;25.90;42.24
47366;BME280;33105;47.964;7.982;2023-09-12T10:41:29;96347.06;;;25.98;40.80
47366;BME280;33105;47.964;7.982;2023-09-12T10:44:30;96340.59;;;26.17;40.53
47366;BME280;33105;47.964;7.982;2023-09-12T10:47:33;96332.00;;;26.29;40.17
47366;BME280;33105;47.964;7.982;2023-09-12T10:50:35;96333.16;;;26.48;40.04
47366;BME280;33105;47.964;7.982;2023-09-12T10:53:36;96334.78;;;26.75;41.94
47366;BME280;33105;47.964;7.982;2023-09-12T10:56:38;96332.44;;;26.54;39.64
47366;BME280;33105;47.964;7.982;2023-09-12T11:06:30;96322.91;;;26.59;38.16
47366;BME280;33105;47.964;7.982;2023-09-12T11:09:32;96325.41;;;26.64;37.24
47366;BME280;33105;47.964;7.982;2023-09-12T11:12:36;96325.47;;;26.94;39.20
47366;BME280;33105;47.964;7.982;2023-09-12T11:16:09;96323.03;;;26.92;37.22
47366;BME280;33105;47.964;7.982;2023-09-12T11:19:19;96321.97;;;27.00;36.45
47366;BME280;33105;47.964;7.982;2023-09-12T11:22:28;96331.88;;;27.21;36.52
47366;BME280;33105;47.964;7.982;2023-09-12T11:25:31;96328.72;;;27.26;36.31
47366;BME280;33105;47.964;7.982;2023-09-12T11:28:34;96326.88;;;27.37;36.00
47366;BME280;33105;47.964;7.982;2023-09-12T11:31:36;96324.16;;;27.44;36.93
47366;BME280;33105;47.964;7.982;2023-09-12T11:34:43;96325.81;;;27.49;35.90
47366;BME280;33105;47.964;7.982;2023-09-12T11:37:49;96318.19;;;27.49;34.79
47366;BME280;33105;47.964;7.982;2023-09-12T11:40:51;96321.81;;;27.50;35.44
47366;BME280;33105;47.964;7.982;2023-09-12T11:43:52;96318.63;;;27.51;33.48
47366;BME280;33105;47.964;7.982;2023-09-12T11:46:54;96321.44;;;27.51;34.92
47366;BME280;33105;47.964;7.982;2023-09-12T11:49:56;96312.69;;;27.56;35.10
47366;BME280;33105;47.964;7.982;2023-09-12T11:56:01;96311.97;;;27.96;37.30
47366;BME280;33105;47.964;7.982;2023-09-12T11:59:03;96312.53;;;27.75;35.26
47366;BME280;33105;47.964;7.982;2023-09-12T12:02:08;96309.28;;;27.73;33.98
47366;BME280;33105;47.964;7.982;2023-09-12T12:05:09;96307.75;;;27.80;34.95
47366;BME280;33105;47.964;7.982;2023-09-12T12:08:11;96308.56;;;27.80;34.55
47366;BME280;33105;47.964;7.982;2023-09-12T12:11:12;96306.34;;;28.00;37.64
47366;BME280;33105;47.964;7.982;2023-09-12T12:14:15;96309.69;;;28.13;34.03
47366;BME280;33105;47.964;7.982;2023-09-12T12:17:16;96305.13;;;27.97;33.99
47366;BME280;33105;47.964;7.982;2023-09-12T12:20:17;96306.34;;;28.00;37.54
47366;BME280;33105;47.964;7.982;2023-09-12T12:23:19;96307.19;;;28.04;36.08
47366;BME280;33105;47.964;7.982;2023-09-12T12:26:20;96299.03;;;28.29;34.95
47366;BME280;33105;47.964;7.982;2023-09-12T12:29:22;96306.72;;;28.35;33.81
47366;BME280;33105;47.964;7.982;2023-09-12T12:32:23;96294.09;;;28.15;33.35
47366;BME280;33105;47.964;7.982;2023-09-12T12:35:24;96300.03;;;28.10;35.02
47366;BME280;33105;47.964;7.982;2023-09-12T12:38:25;96301.19;;;28.05;33.63
47366;BME280;33105;47.964;7.982;2023-09-12T12:41:28;96299.13;;;27.99;33.68
47366;BME280;33105;47.964;7.982;2023-09-12T12:44:33;96298.41;;;28.05;34.74
47366;BME280;33105;47.964;7.982;2023-09-12T12:47:42;96293.53;;;28.39;35.32
47366;BME280;33105;47.964;7.982;2023-09-12T12:50:43;96289.94;;;28.46;35.36
47366;BME280;33105;47.964;7.982;2023-09-12T12:53:53;96280.16;;;28.26;33.42
47366;BME280;33105;47.964;7.982;2023-09-12T12:56:54;96287.38;;;28.27;35.03
47366;BME280;33105;47.964;7.982;2023-09-12T12:59:55;96284.31;;;28.46;37.15
47366;BME280;33105;47.964;7.982;2023-09-12T13:02:57;96282.91;;;28.70;36.09
47366;BME280;33105;47.964;7.982;2023-09-12T13:05:58;96275.50;;;28.48;32.88
47366;BME280;33105;47.964;7.982;2023-09-12T13:08:59;96264.88;;;28.23;34.52
47366;BME280;33105;47.964;7.982;2023-09-12T13:12:05;96268.75;;;28.56;34.08
47366;BME280;33105;47.964;7.982;2023-09-12T13:15:07;96266.69;;;28.46;33.18
47366;BME280;33105;47.964;7.982;2023-09-12T13:18:10;96260.25;;;28.49;36.19
47366;BME280;33105;47.964;7.982;2023-09-12T13:21:11;96256.59;;;28.41;34.81
47366;BME280;33105;47.964;7.982;2023-09-12T13:24:12;96253.06;;;28.51;36.19
47366;BME280;33105;47.964;7.982;2023-09-12T13:27:14;96243.84;;;28.54;34.50
47366;BME280;33105;47.964;7.982;2023-09-12T13:30:15;96238.72;;;28.67;34.45
47366;BME280;33105;47.964;7.982;2023-09-12T13:33:16;96239.38;;;28.50;33.73
47366;BME280;33105;47.964;7.982;2023-09-12T13:36:17;96232.97;;;28.46;36.16
47366;BME280;33105;47.964;7.982;2023-09-12T13:39:19;96230.59;;;28.55;35.73
47366;BME280;33105;47.964;7.982;2023-09-12T13:42:20;96230.53;;;28.48;35.54
47366;BME280;33105;47.964;7.982;2023-09-12T13:45:22;96227.47;;;28.67;36.22
47366;BME280;33105;47.964;7.982;2023-09-12T13:48:23;96227.00;;;28.58;35.16
47366;BME280;33105;47.964;7.982;2023-09-12T13:51:24;96235.38;;;28.51;32.47
47366;BME280;33105;47.964;7.982;2023-09-12T13:54:25;96235.50;;;28.72;31.78
47366;BME280;33105;47.964;7.982;2023-09-12T13:57:26;96229.41;;;28.56;32.35
47366;BME280;33105;47.964;7.982;2023-09-12T14:00:28;96237.94;;;28.70;33.08
47366;BME280;33105;47.964;7.982;2023-09-12T14:03:29;96227.50;;;28.70;31.89
47366;BME280;33105;47.964;7.982;2023-09-12T14:06:32;96241.31;;;28.93;32.76
47366;BME280;33105;47.964;7.982;2023-09-12T14:09:33;96240.50;;;28.93;33.91
47366;BME280;33105;47.964;7.982;2023-09-12T14:12:35;96246.16;;;29.03;33.57
47366;BME280;33105;47.964;7.982;2023-09-12T14:15:36;96239.69;;;28.89;33.03
47366;BME280;33105;47.964;7.982;2023-09-12T14:18:37;96226.69;;;28.70;31.51
47366;BME280;33105;47.964;7.982;2023-09-12T14:21:38;96232.81;;;28.83;33.33
47366;BME280;33105;47.964;7.982;2023-09-12T14:24:40;96242.50;;;28.92;33.45
47366;BME280;33105;47.964;7.982;2023-09-12T14:27:42;96231.66;;;28.91;32.43
47366;BME280;33105;47.964;7.982;2023-09-12T14:30:44;96242.50;;;28.89;32.17
47366;BME280;33105;47.964;7.982;2023-09-12T14:33:46;96234.72;;;28.71;33.17
47366;BME280;33105;47.964;7.982;2023-09-12T14:36:47;96225.19;;;28.83;31.60
47366;BME280;33105;47.964;7.982;2023-09-12T14:39:49;96223.63;;;28.89;32.75
47366;BME280;33105;47.964;7.982;2023-09-12T14:42:50;96229.28;;;29.03;29.99
47366;BME280;33105;47.964;7.982;2023-09-12T14:45:51;96226.13;;;29.12;30.83
47366;BME280;33105;47.964;7.982;2023-09-12T14:48:53;96214.03;;;29.08;31.94
47366;BME280;33105;47.964;7.982;2023-09-12T14:51:54;96226.84;;;28.91;31.73
47366;BME280;33105;47.964;7.982;2023-09-12T14:54:55;96223.16;;;28.84;31.53
47366;BME280;33105;47.964;7.982;2023-09-12T14:57:58;96219.44;;;28.72;30.11
47366;BME280;33105;47.964;7.982;2023-09-12T15:01:00;96222.66;;;28.67;28.76
47366;BME280;33105;47.964;7.982;2023-09-12T15:04:01;96221.81;;;28.63;30.62
47366;BME280;33105;47.964;7.982;2023-09-12T15:07:03;96210.22;;;28.72;30.12
47366;BME280;33105;47.964;7.982;2023-09-12T15:10:04;96209.78;;;28.63;31.40
47366;BME280;33105;47.964;7.982;2023-09-12T15:13:06;96205.72;;;28.57;28.18
47366;BME280;33105;47.964;7.982;2023-09-12T15:16:07;96209.19;;;28.36;28.87
47366;BME280;33105;47.964;7.982;2023-09-12T15:19:08;96203.22;;;28.41;29.54
47366;BME280;33105;47.964;7.982;2023-09-12T15:22:10;96199.84;;;28.21;29.22
47366;BME280;33105;47.964;7.982;2023-09-12T15:25:11;96206.13;;;28.07;30.55
47366;BME280;33105;47.964;7.982;2023-09-12T15:28:12;96196.84;;;27.96;29.43
47366;BME280;33105;47.964;7.982;2023-09-12T15:31:13;96196.66;;;27.78;29.79
47366;BME280;33105;47.964;7.982;2023-09-12T15:34:14;96199.91;;;27.81;31.27
47366;BME280;33105;47.964;7.982;2023-09-12T15:37:16;96209.72;;;27.60;29.18
47366;BME280;33105;47.964;7.982;2023-09-12T15:40:17;96203.81;;;27.69;29.40
47366;BME280;33105;47.964;7.982;2023-09-12T15:43:18;96203.47;;;27.77;32.74
47366;BME280;33105;47.964;7.982;2023-09-12T15:46:19;96208.97;;;27.63;31.99
47366;BME280;33105;47.964;7.982;2023-09-12T15:49:21;96217.75;;;27.62;30.48
47366;BME280;33105;47.964;7.982;2023-09-12T15:52:22;96215.34;;;27.60;30.98
47366;BME280;33105;47.964;7.982;2023-09-12T15:55:23;96222.16;;;27.59;35.27
47366;BME280;33105;47.964;7.982;2023-09-12T15:58:25;96225.59;;;27.49;35.96
47366;BME280;33105;47.964;7.982;2023-09-12T16:01:29;96230.72;;;27.40;35.11
47366;BME280;33105;47.964;7.982;2023-09-12T16:04:31;96230.22;;;27.31;36.49
47366;BME280;33105;47.964;7.982;2023-09-12T16:07:32;96225.78;;;27.30;36.06
47366;BME280;33105;47.964;7.982;2023-09-12T16:10:34;96228.19;;;27.28;37.67
47366;BME280;33105;47.964;7.982;2023-09-12T16:13:35;96227.75;;;27.26;35.71
47366;BME280;33105;47.964;7.982;2023-09-12T16:16:36;96237.34;;;27.25;37.30
47366;BME280;33105;47.964;7.982;2023-09-12T16:19:37;96237.94;;;27.07;37.38
47366;BME280;33105;47.964;7.982;2023-09-12T16:22:39;96242.69;;;27.03;39.73